VLG4SR LEZL-LEPA
Flight info
| Callsign | VLG4SR |
|---|---|
| Flight time | 1h 14m |
| Altitude | 36000 |
| Route | BUDIT DCT ALT N851 RUXET |
| Aircraft | A320/M-SDE3FGHIRWY/LB1 |
Departure
| Time | 2026-04-23 16:44 |
|---|---|
| Airport | Seville Airport (LEZL) |
Arrival
| Time | 2026-04-23 17:59 |
|---|---|
| Airport | Palma de Mallorca Airport (LEPA) |
| Time | Latitude | Longitude | Altitude | Speed | Heading |
|---|---|---|---|---|---|
| 2026-04-23 16:25 | 37.42217 | -5.89951 | 93 ft | 0 kts | 314° |
| 2026-04-23 16:34 | 37.42213 | -5.89946 | 96 ft | 4 kts | 314° |
| 2026-04-23 16:34 | 37.42195 | -5.89922 | 94 ft | 4 kts | 313° |
| 2026-04-23 16:34 | 37.42177 | -5.89898 | 94 ft | 3 kts | 319° |
| 2026-04-23 16:35 | 37.42165 | -5.89887 | 94 ft | 2 kts | 14° |
| 2026-04-23 16:35 | 37.42155 | -5.89893 | 93 ft | 2 kts | 40° |
| 2026-04-23 16:35 | 37.42153 | -5.89895 | 92 ft | 0 kts | 39° |
| 2026-04-23 16:37 | 37.42154 | -5.89895 | 92 ft | 1 kts | 39° |
| 2026-04-23 16:37 | 37.42178 | -5.89865 | 94 ft | 7 kts | 44° |
| 2026-04-23 16:37 | 37.42214 | -5.89821 | 96 ft | 8 kts | 44° |
| 2026-04-23 16:37 | 37.42248 | -5.89778 | 93 ft | 7 kts | 45° |
| 2026-04-23 16:38 | 37.42254 | -5.89711 | 95 ft | 9 kts | 118° |
| 2026-04-23 16:38 | 37.42215 | -5.89656 | 96 ft | 8 kts | 133° |
| 2026-04-23 16:38 | 37.42171 | -5.89599 | 95 ft | 12 kts | 134° |
| 2026-04-23 16:38 | 37.42116 | -5.89528 | 97 ft | 12 kts | 134° |
| 2026-04-23 16:39 | 37.42054 | -5.89448 | 100 ft | 12 kts | 134° |
| 2026-04-23 16:39 | 37.41997 | -5.89374 | 101 ft | 11 kts | 133° |
| 2026-04-23 16:39 | 37.41983 | -5.89291 | 99 ft | 11 kts | 90° |
| 2026-04-23 16:39 | 37.41983 | -5.89173 | 100 ft | 16 kts | 90° |
| 2026-04-23 16:40 | 37.41983 | -5.89016 | 101 ft | 20 kts | 89° |
| 2026-04-23 16:40 | 37.41984 | -5.88831 | 102 ft | 20 kts | 90° |
| 2026-04-23 16:40 | 37.41985 | -5.88666 | 103 ft | 18 kts | 89° |
| 2026-04-23 16:40 | 37.41986 | -5.88522 | 104 ft | 15 kts | 90° |
| 2026-04-23 16:41 | 37.41986 | -5.88391 | 105 ft | 14 kts | 90° |
| 2026-04-23 16:41 | 37.41986 | -5.88256 | 106 ft | 17 kts | 89° |
| 2026-04-23 16:41 | 37.41987 | -5.88089 | 106 ft | 19 kts | 90° |
| 2026-04-23 16:41 | 37.41987 | -5.87930 | 107 ft | 17 kts | 90° |
| 2026-04-23 16:42 | 37.41987 | -5.87793 | 108 ft | 14 kts | 90° |
| 2026-04-23 16:42 | 37.41988 | -5.87677 | 109 ft | 12 kts | 90° |
| 2026-04-23 16:42 | 37.41987 | -5.87571 | 109 ft | 14 kts | 93° |
| 2026-04-23 16:42 | 37.41957 | -5.87468 | 111 ft | 11 kts | 125° |
| 2026-04-23 16:43 | 37.41895 | -5.87427 | 115 ft | 10 kts | 175° |
| 2026-04-23 16:43 | 37.41832 | -5.87455 | 115 ft | 10 kts | 215° |
| 2026-04-23 16:43 | 37.41801 | -5.87531 | 116 ft | 12 kts | 270° |
| 2026-04-23 16:43 | 37.41799 | -5.87696 | 113 ft | 42 kts | 269° |
| 2026-04-23 16:44 | 37.41798 | -5.88360 | 107 ft | 107 kts | 270° |
| 2026-04-23 16:44 | 37.41793 | -5.89525 | 100 ft | 157 kts | 270° |
| 2026-04-23 16:44 | 37.41800 | -5.90948 | 586 ft | 161 kts | 266° |
| 2026-04-23 16:44 | 37.41886 | -5.92348 | 1201 ft | 165 kts | 290° |
| 2026-04-23 16:45 | 37.42589 | -5.93488 | 1831 ft | 168 kts | 313° |
| 2026-04-23 16:45 | 37.43501 | -5.94535 | 2162 ft | 188 kts | 315° |
| 2026-04-23 16:45 | 37.44545 | -5.95696 | 2403 ft | 212 kts | 315° |
| 2026-04-23 16:45 | 37.45710 | -5.97004 | 2700 ft | 237 kts | 315° |
| 2026-04-23 16:46 | 37.46992 | -5.98464 | 3144 ft | 257 kts | 315° |
| 2026-04-23 16:46 | 37.48344 | -6.00017 | 3793 ft | 269 kts | 314° |
| 2026-04-23 16:46 | 37.49743 | -6.01641 | 4525 ft | 278 kts | 315° |
| 2026-04-23 16:46 | 37.51172 | -6.03313 | 5292 ft | 282 kts | 316° |
| 2026-04-23 16:47 | 37.52617 | -6.05006 | 6149 ft | 285 kts | 317° |
| 2026-04-23 16:47 | 37.54304 | -6.06363 | 6882 ft | 293 kts | 338° |
| 2026-04-23 16:47 | 37.56298 | -6.06861 | 7679 ft | 295 kts | 1° |
| 2026-04-23 16:47 | 37.58322 | -6.06397 | 8378 ft | 301 kts | 23° |
| 2026-04-23 16:48 | 37.60084 | -6.04985 | 9098 ft | 303 kts | 46° |
| 2026-04-23 16:48 | 37.61305 | -6.02838 | 9818 ft | 303 kts | 69° |
| 2026-04-23 16:48 | 37.61924 | -6.00299 | 10420 ft | 309 kts | 79° |
| 2026-04-23 16:48 | 37.62471 | -5.97582 | 10616 ft | 332 kts | 78° |
| 2026-04-23 16:49 | 37.62852 | -5.95671 | 10750 ft | 345 kts | 78° |
| 2026-04-23 16:49 | 37.63651 | -5.91671 | 11502 ft | 355 kts | 79° |
| 2026-04-23 16:49 | 37.64054 | -5.89664 | 11954 ft | 357 kts | 79° |
| 2026-04-23 16:49 | 37.64670 | -5.86611 | 12668 ft | 360 kts | 79° |
| 2026-04-23 16:50 | 37.65294 | -5.83544 | 13371 ft | 363 kts | 79° |
| 2026-04-23 16:50 | 37.65923 | -5.80446 | 14030 ft | 366 kts | 79° |
| 2026-04-23 16:50 | 37.66552 | -5.77321 | 14622 ft | 369 kts | 79° |
| 2026-04-23 16:50 | 37.67184 | -5.74166 | 15204 ft | 372 kts | 79° |
| 2026-04-23 16:51 | 37.67819 | -5.70990 | 15761 ft | 376 kts | 79° |
| 2026-04-23 16:51 | 37.68462 | -5.67774 | 16322 ft | 380 kts | 79° |
| 2026-04-23 16:51 | 37.69111 | -5.64524 | 16891 ft | 383 kts | 79° |
| 2026-04-23 16:51 | 37.69767 | -5.61243 | 17437 ft | 387 kts | 79° |
| 2026-04-23 16:52 | 37.70425 | -5.57938 | 17991 ft | 391 kts | 79° |
| 2026-04-23 16:52 | 37.71089 | -5.54590 | 18489 ft | 395 kts | 79° |
| 2026-04-23 16:52 | 37.71758 | -5.51214 | 18998 ft | 398 kts | 79° |
| 2026-04-23 16:52 | 37.72432 | -5.47813 | 19495 ft | 400 kts | 79° |
| 2026-04-23 16:53 | 37.73108 | -5.44396 | 20006 ft | 403 kts | 79° |
| 2026-04-23 16:53 | 37.73789 | -5.40946 | 20513 ft | 406 kts | 79° |
| 2026-04-23 16:53 | 37.74475 | -5.37470 | 21019 ft | 409 kts | 79° |
| 2026-04-23 16:53 | 37.75165 | -5.33970 | 21520 ft | 412 kts | 80° |
| 2026-04-23 16:54 | 37.75858 | -5.30456 | 22001 ft | 414 kts | 80° |
| 2026-04-23 16:54 | 37.76554 | -5.26914 | 22482 ft | 416 kts | 80° |
| 2026-04-23 16:54 | 37.77251 | -5.23346 | 22932 ft | 419 kts | 80° |
| 2026-04-23 16:54 | 37.77954 | -5.19742 | 23373 ft | 422 kts | 80° |
| 2026-04-23 16:55 | 37.78657 | -5.16143 | 23754 ft | 425 kts | 80° |
| 2026-04-23 16:55 | 37.79366 | -5.12503 | 24113 ft | 427 kts | 80° |
| 2026-04-23 16:55 | 37.80078 | -5.08839 | 24462 ft | 430 kts | 80° |
| 2026-04-23 16:55 | 37.80784 | -5.05206 | 24796 ft | 432 kts | 80° |
| 2026-04-23 16:56 | 37.81511 | -5.01460 | 25147 ft | 435 kts | 80° |
| 2026-04-23 16:56 | 37.82221 | -4.97785 | 25460 ft | 437 kts | 80° |
| 2026-04-23 16:56 | 37.82942 | -4.94039 | 25771 ft | 439 kts | 80° |
| 2026-04-23 16:56 | 37.83665 | -4.90280 | 26129 ft | 440 kts | 80° |
| 2026-04-23 16:57 | 37.84387 | -4.86516 | 26475 ft | 442 kts | 81° |
| 2026-04-23 16:57 | 37.84857 | -4.82686 | 26772 ft | 440 kts | 89° |
| 2026-04-23 16:57 | 37.85092 | -4.78821 | 27076 ft | 441 kts | 89° |
| 2026-04-23 16:57 | 37.85330 | -4.74935 | 27383 ft | 444 kts | 89° |
| 2026-04-23 16:58 | 37.85572 | -4.71042 | 27677 ft | 446 kts | 89° |
| 2026-04-23 16:58 | 37.85816 | -4.67119 | 27984 ft | 448 kts | 89° |
| 2026-04-23 16:58 | 37.86061 | -4.63178 | 28274 ft | 450 kts | 89° |
| 2026-04-23 16:58 | 37.86304 | -4.59218 | 28559 ft | 452 kts | 89° |
| 2026-04-23 16:59 | 37.86544 | -4.55242 | 28822 ft | 454 kts | 89° |
| 2026-04-23 16:59 | 37.86781 | -4.51263 | 29105 ft | 455 kts | 89° |
| 2026-04-23 16:59 | 37.87019 | -4.47260 | 29380 ft | 456 kts | 89° |
| 2026-04-23 16:59 | 37.87258 | -4.43247 | 29645 ft | 458 kts | 89° |
| 2026-04-23 17:00 | 37.87496 | -4.39219 | 29883 ft | 459 kts | 89° |
| 2026-04-23 17:00 | 37.87734 | -4.35187 | 30103 ft | 461 kts | 89° |
| 2026-04-23 17:00 | 37.87971 | -4.31130 | 30293 ft | 463 kts | 89° |
| 2026-04-23 17:00 | 37.88208 | -4.27060 | 30509 ft | 463 kts | 89° |
| 2026-04-23 17:01 | 37.88447 | -4.22992 | 30784 ft | 463 kts | 89° |
| 2026-04-23 17:01 | 37.88684 | -4.18941 | 31052 ft | 462 kts | 89° |
| 2026-04-23 17:01 | 37.88920 | -4.14881 | 31313 ft | 462 kts | 89° |
| 2026-04-23 17:01 | 37.89152 | -4.10823 | 31552 ft | 462 kts | 89° |
| 2026-04-23 17:02 | 37.89381 | -4.06764 | 31793 ft | 462 kts | 89° |
| 2026-04-23 17:02 | 37.89606 | -4.02718 | 32053 ft | 462 kts | 90° |
| 2026-04-23 17:02 | 37.89831 | -3.98662 | 32314 ft | 461 kts | 90° |
| 2026-04-23 17:02 | 37.90054 | -3.94610 | 32568 ft | 461 kts | 90° |
| 2026-04-23 17:03 | 37.90274 | -3.90559 | 32824 ft | 461 kts | 90° |
| 2026-04-23 17:03 | 37.90493 | -3.86520 | 33078 ft | 461 kts | 90° |
| 2026-04-23 17:03 | 37.90709 | -3.82472 | 33333 ft | 460 kts | 90° |
| 2026-04-23 17:03 | 37.90926 | -3.78421 | 33527 ft | 461 kts | 90° |
| 2026-04-23 17:04 | 37.91145 | -3.74360 | 33742 ft | 462 kts | 90° |
| 2026-04-23 17:04 | 37.91364 | -3.70311 | 33992 ft | 462 kts | 90° |
| 2026-04-23 17:04 | 37.91581 | -3.66251 | 34213 ft | 462 kts | 90° |
| 2026-04-23 17:04 | 37.91796 | -3.62195 | 34430 ft | 461 kts | 90° |
| 2026-04-23 17:05 | 37.92009 | -3.58141 | 34653 ft | 461 kts | 90° |
| 2026-04-23 17:05 | 37.92221 | -3.54103 | 34859 ft | 460 kts | 90° |
| 2026-04-23 17:05 | 37.92436 | -3.50040 | 35067 ft | 460 kts | 90° |
| 2026-04-23 17:05 | 37.92650 | -3.46020 | 35267 ft | 460 kts | 89° |
| 2026-04-23 17:06 | 37.92862 | -3.41981 | 35439 ft | 459 kts | 89° |
| 2026-04-23 17:06 | 37.93072 | -3.37945 | 35638 ft | 459 kts | 89° |
| 2026-04-23 17:06 | 37.93277 | -3.33914 | 35843 ft | 458 kts | 89° |
| 2026-04-23 17:06 | 37.93480 | -3.29899 | 35945 ft | 457 kts | 89° |
| 2026-04-23 17:07 | 37.93889 | -3.21868 | 35968 ft | 456 kts | 89° |
| 2026-04-23 17:07 | 37.94288 | -3.13864 | 35974 ft | 455 kts | 89° |
| 2026-04-23 17:08 | 37.94679 | -3.05851 | 35971 ft | 455 kts | 89° |
| 2026-04-23 17:08 | 37.95065 | -2.97892 | 35983 ft | 455 kts | 89° |
| 2026-04-23 17:09 | 37.95460 | -2.89827 | 36006 ft | 456 kts | 89° |
| 2026-04-23 17:09 | 37.95843 | -2.81816 | 36008 ft | 456 kts | 89° |
| 2026-04-23 17:10 | 37.96206 | -2.73794 | 36028 ft | 456 kts | 89° |
| 2026-04-23 17:10 | 37.96565 | -2.65782 | 36021 ft | 456 kts | 89° |
| 2026-04-23 17:11 | 37.96921 | -2.57755 | 36040 ft | 456 kts | 89° |
| 2026-04-23 17:11 | 37.97384 | -2.49732 | 36041 ft | 458 kts | 83° |
| 2026-04-23 17:12 | 37.98644 | -2.41808 | 36056 ft | 459 kts | 81° |
| 2026-04-23 17:12 | 37.99922 | -2.33927 | 36056 ft | 459 kts | 81° |
| 2026-04-23 17:13 | 38.01201 | -2.25940 | 36053 ft | 459 kts | 81° |
| 2026-04-23 17:13 | 38.02447 | -2.18046 | 36068 ft | 459 kts | 81° |
| 2026-04-23 17:14 | 38.03708 | -2.10054 | 36071 ft | 459 kts | 81° |
| 2026-04-23 17:14 | 38.04957 | -2.02161 | 36080 ft | 459 kts | 81° |
| 2026-04-23 17:15 | 38.06204 | -1.94218 | 36084 ft | 459 kts | 81° |
| 2026-04-23 17:15 | 38.07452 | -1.86262 | 36081 ft | 459 kts | 81° |
| 2026-04-23 17:16 | 38.08686 | -1.78316 | 36084 ft | 459 kts | 81° |
| 2026-04-23 17:16 | 38.09914 | -1.70362 | 36083 ft | 459 kts | 81° |
| 2026-04-23 17:17 | 38.11132 | -1.62424 | 36079 ft | 458 kts | 81° |
| 2026-04-23 17:17 | 38.12346 | -1.54476 | 36076 ft | 458 kts | 81° |
| 2026-04-23 17:18 | 38.14179 | -1.42563 | 36055 ft | 459 kts | 81° |
| 2026-04-23 17:19 | 38.15385 | -1.34598 | 36040 ft | 459 kts | 80° |
| 2026-04-23 17:19 | 38.16582 | -1.26630 | 36042 ft | 460 kts | 81° |
| 2026-04-23 17:20 | 38.17777 | -1.18647 | 36044 ft | 460 kts | 81° |
| 2026-04-23 17:21 | 38.20157 | -1.02683 | 36050 ft | 460 kts | 80° |
| 2026-04-23 17:21 | 38.22073 | -0.90756 | 36051 ft | 459 kts | 71° |
| 2026-04-23 17:22 | 38.25368 | -0.79407 | 36054 ft | 459 kts | 70° |
| 2026-04-23 17:23 | 38.28691 | -0.67954 | 36038 ft | 461 kts | 70° |
| 2026-04-23 17:24 | 38.32004 | -0.56458 | 36037 ft | 462 kts | 70° |
| 2026-04-23 17:24 | 38.35318 | -0.44914 | 36044 ft | 462 kts | 70° |
| 2026-04-23 17:25 | 38.38627 | -0.33368 | 36051 ft | 462 kts | 70° |
| 2026-04-23 17:26 | 38.43024 | -0.17948 | 36060 ft | 463 kts | 70° |
| 2026-04-23 17:27 | 38.46300 | -0.06369 | 36060 ft | 463 kts | 70° |
| 2026-04-23 17:27 | 38.48474 | 0.01371 | 36077 ft | 463 kts | 69° |
| 2026-04-23 17:28 | 38.50655 | 0.09121 | 36064 ft | 465 kts | 69° |
| 2026-04-23 17:28 | 38.52843 | 0.16896 | 36070 ft | 466 kts | 70° |
| 2026-04-23 17:29 | 38.55012 | 0.24648 | 36072 ft | 467 kts | 70° |
| 2026-04-23 17:30 | 38.57925 | 0.35108 | 36084 ft | 467 kts | 70° |
| 2026-04-23 17:30 | 38.61541 | 0.48119 | 36096 ft | 467 kts | 70° |
| 2026-04-23 17:31 | 38.63699 | 0.55940 | 36100 ft | 466 kts | 70° |
| 2026-04-23 17:31 | 38.65846 | 0.63746 | 35947 ft | 465 kts | 70° |
| 2026-04-23 17:32 | 38.66816 | 0.67683 | 35687 ft | 463 kts | 77° |
| 2026-04-23 17:32 | 38.67355 | 0.71735 | 35442 ft | 463 kts | 82° |
| 2026-04-23 17:32 | 38.67808 | 0.75820 | 35196 ft | 464 kts | 82° |
| 2026-04-23 17:32 | 38.68262 | 0.79912 | 34947 ft | 465 kts | 81° |
| 2026-04-23 17:33 | 38.68719 | 0.84004 | 34698 ft | 466 kts | 81° |
| 2026-04-23 17:33 | 38.69177 | 0.88126 | 34464 ft | 466 kts | 81° |
| 2026-04-23 17:33 | 38.69628 | 0.92238 | 34228 ft | 467 kts | 81° |
| 2026-04-23 17:33 | 38.70078 | 0.96353 | 33978 ft | 467 kts | 81° |
| 2026-04-23 17:34 | 38.70525 | 1.00458 | 33709 ft | 465 kts | 81° |
| 2026-04-23 17:34 | 38.70971 | 1.04552 | 33440 ft | 463 kts | 81° |
| 2026-04-23 17:34 | 38.71850 | 1.12693 | 32904 ft | 459 kts | 81° |
| 2026-04-23 17:35 | 38.72286 | 1.16731 | 32581 ft | 456 kts | 81° |
| 2026-04-23 17:35 | 38.73001 | 1.23370 | 31647 ft | 450 kts | 81° |
| 2026-04-23 17:35 | 38.73566 | 1.28665 | 30919 ft | 446 kts | 81° |
| 2026-04-23 17:36 | 38.73842 | 1.31263 | 30561 ft | 445 kts | 81° |
| 2026-04-23 17:36 | 38.74261 | 1.35177 | 30003 ft | 442 kts | 81° |
| 2026-04-23 17:36 | 38.74675 | 1.39061 | 29441 ft | 438 kts | 81° |
| 2026-04-23 17:36 | 38.75077 | 1.42913 | 28918 ft | 434 kts | 81° |
| 2026-04-23 17:37 | 38.75474 | 1.46725 | 28399 ft | 430 kts | 81° |
| 2026-04-23 17:37 | 38.75872 | 1.50508 | 27889 ft | 426 kts | 81° |
| 2026-04-23 17:37 | 38.76651 | 1.57973 | 26897 ft | 419 kts | 81° |
| 2026-04-23 17:38 | 38.77033 | 1.61666 | 26420 ft | 416 kts | 81° |
| 2026-04-23 17:38 | 38.77410 | 1.65327 | 25950 ft | 413 kts | 80° |
| 2026-04-23 17:38 | 38.77787 | 1.68967 | 25497 ft | 410 kts | 80° |
| 2026-04-23 17:38 | 38.78163 | 1.72577 | 25039 ft | 408 kts | 80° |
| 2026-04-23 17:39 | 38.78535 | 1.76171 | 24591 ft | 405 kts | 80° |
| 2026-04-23 17:39 | 38.78899 | 1.79741 | 24140 ft | 403 kts | 81° |
| 2026-04-23 17:39 | 38.79258 | 1.83300 | 23677 ft | 402 kts | 81° |
| 2026-04-23 17:39 | 38.79613 | 1.86840 | 23163 ft | 399 kts | 81° |
| 2026-04-23 17:40 | 38.80148 | 1.90255 | 22715 ft | 393 kts | 70° |
| 2026-04-23 17:40 | 38.81163 | 1.93470 | 22260 ft | 386 kts | 59° |
| 2026-04-23 17:40 | 38.82586 | 1.96345 | 21819 ft | 379 kts | 49° |
| 2026-04-23 17:40 | 38.84197 | 1.98997 | 21377 ft | 376 kts | 48° |
| 2026-04-23 17:41 | 38.85794 | 2.01637 | 20935 ft | 374 kts | 48° |
| 2026-04-23 17:41 | 38.88887 | 2.06769 | 20051 ft | 371 kts | 49° |
| 2026-04-23 17:41 | 38.90310 | 2.09126 | 19647 ft | 370 kts | 49° |
| 2026-04-23 17:42 | 38.93452 | 2.14324 | 18758 ft | 368 kts | 49° |
| 2026-04-23 17:42 | 38.95019 | 2.16918 | 18309 ft | 367 kts | 49° |
| 2026-04-23 17:42 | 38.96581 | 2.19507 | 17819 ft | 365 kts | 49° |
| 2026-04-23 17:43 | 38.98133 | 2.22080 | 17398 ft | 363 kts | 49° |
| 2026-04-23 17:43 | 38.99671 | 2.24636 | 16966 ft | 361 kts | 49° |
| 2026-04-23 17:43 | 39.01199 | 2.27178 | 16551 ft | 358 kts | 49° |
| 2026-04-23 17:43 | 39.02725 | 2.29716 | 16146 ft | 357 kts | 48° |
| 2026-04-23 17:44 | 39.04240 | 2.32239 | 15678 ft | 356 kts | 49° |
| 2026-04-23 17:44 | 39.05750 | 2.34751 | 15259 ft | 354 kts | 49° |
| 2026-04-23 17:44 | 39.08751 | 2.39757 | 14401 ft | 352 kts | 49° |
| 2026-04-23 17:45 | 39.10216 | 2.42208 | 14071 ft | 348 kts | 49° |
| 2026-04-23 17:45 | 39.13092 | 2.47044 | 13827 ft | 327 kts | 49° |
| 2026-04-23 17:45 | 39.14449 | 2.49326 | 13673 ft | 317 kts | 49° |
| 2026-04-23 17:46 | 39.17054 | 2.53695 | 13437 ft | 299 kts | 48° |
| 2026-04-23 17:46 | 39.18311 | 2.55796 | 13190 ft | 294 kts | 48° |
| 2026-04-23 17:46 | 39.19560 | 2.57887 | 12875 ft | 292 kts | 48° |
| 2026-04-23 17:47 | 39.20797 | 2.59959 | 12557 ft | 291 kts | 48° |
| 2026-04-23 17:47 | 39.22028 | 2.62023 | 12231 ft | 290 kts | 48° |
| 2026-04-23 17:47 | 39.24473 | 2.66127 | 11587 ft | 287 kts | 49° |
| 2026-04-23 17:48 | 39.25669 | 2.68138 | 11283 ft | 286 kts | 48° |
| 2026-04-23 17:48 | 39.26891 | 2.70198 | 10978 ft | 284 kts | 48° |
| 2026-04-23 17:48 | 39.28086 | 2.72217 | 10650 ft | 283 kts | 48° |
| 2026-04-23 17:48 | 39.29278 | 2.74230 | 10327 ft | 282 kts | 48° |
| 2026-04-23 17:49 | 39.30460 | 2.76226 | 10013 ft | 280 kts | 47° |
| 2026-04-23 17:49 | 39.31857 | 2.77913 | 9664 ft | 270 kts | 26° |
| 2026-04-23 17:49 | 39.33544 | 2.78744 | 9323 ft | 261 kts | 5° |
| 2026-04-23 17:49 | 39.35325 | 2.78704 | 8960 ft | 254 kts | 345° |
| 2026-04-23 17:50 | 39.37028 | 2.78118 | 8576 ft | 253 kts | 342° |
| 2026-04-23 17:50 | 39.40420 | 2.76919 | 7840 ft | 252 kts | 343° |
| 2026-04-23 17:50 | 39.41980 | 2.75970 | 7501 ft | 247 kts | 319° |
| 2026-04-23 17:51 | 39.42978 | 2.74205 | 7182 ft | 246 kts | 292° |
| 2026-04-23 17:51 | 39.43187 | 2.72009 | 6807 ft | 251 kts | 268° |
| 2026-04-23 17:51 | 39.42778 | 2.67472 | 5892 ft | 257 kts | 266° |
| 2026-04-23 17:52 | 39.42563 | 2.65171 | 5454 ft | 259 kts | 264° |
| 2026-04-23 17:52 | 39.42119 | 2.60416 | 4264 ft | 275 kts | 263° |
| 2026-04-23 17:52 | 39.41891 | 2.57959 | 3880 ft | 274 kts | 263° |
| 2026-04-23 17:53 | 39.41473 | 2.53320 | 3750 ft | 246 kts | 266° |
| 2026-04-23 17:53 | 39.41753 | 2.51254 | 3638 ft | 228 kts | 305° |
| 2026-04-23 17:53 | 39.42888 | 2.50020 | 3496 ft | 208 kts | 348° |
| 2026-04-23 17:54 | 39.44254 | 2.50056 | 3357 ft | 195 kts | 27° |
| 2026-04-23 17:54 | 39.45254 | 2.51144 | 3215 ft | 190 kts | 60° |
| 2026-04-23 17:54 | 39.46638 | 2.54063 | 2999 ft | 184 kts | 60° |
| 2026-04-23 17:55 | 39.47921 | 2.56761 | 2555 ft | 171 kts | 60° |
| 2026-04-23 17:55 | 39.48533 | 2.58048 | 2339 ft | 164 kts | 62° |
| 2026-04-23 17:55 | 39.49112 | 2.59263 | 2126 ft | 153 kts | 62° |
| 2026-04-23 17:56 | 39.49647 | 2.60389 | 1947 ft | 140 kts | 60° |
| 2026-04-23 17:56 | 39.50648 | 2.62498 | 1576 ft | 138 kts | 62° |
| 2026-04-23 17:56 | 39.51147 | 2.63549 | 1386 ft | 136 kts | 62° |
| 2026-04-23 17:57 | 39.51641 | 2.64589 | 1210 ft | 136 kts | 62° |
| 2026-04-23 17:57 | 39.52135 | 2.65631 | 1029 ft | 135 kts | 61° |
| 2026-04-23 17:57 | 39.53143 | 2.67679 | 638 ft | 135 kts | 57° |
| 2026-04-23 17:58 | 39.53667 | 2.68703 | 491 ft | 137 kts | 63° |
| 2026-04-23 17:58 | 39.54138 | 2.69776 | 303 ft | 137 kts | 65° |
| 2026-04-23 17:58 | 39.54614 | 2.70836 | 105 ft | 135 kts | 61° |
| 2026-04-23 17:58 | 39.55086 | 2.71848 | 33 ft | 120 kts | 60° |
| 2026-04-23 17:59 | 39.55437 | 2.72591 | 30 ft | 72 kts | 58° |
| 2026-04-23 17:59 | 39.55616 | 2.72968 | 30 ft | 36 kts | 59° |
| 2026-04-23 17:59 | 39.55705 | 2.73171 | 30 ft | 20 kts | 69° |
| 2026-04-23 17:59 | 39.55719 | 2.73322 | 30 ft | 14 kts | 89° |
| 2026-04-23 18:00 | 39.55708 | 2.73429 | 30 ft | 11 kts | 129° |
| 2026-04-23 18:00 | 39.55639 | 2.73489 | 30 ft | 13 kts | 148° |
| 2026-04-23 18:00 | 39.55558 | 2.73553 | 30 ft | 15 kts | 149° |
| 2026-04-23 18:00 | 39.55466 | 2.73624 | 30 ft | 16 kts | 149° |
| 2026-04-23 18:01 | 39.55364 | 2.73705 | 30 ft | 18 kts | 148° |
| 2026-04-23 18:01 | 39.55253 | 2.73793 | 30 ft | 19 kts | 148° |
| 2026-04-23 18:01 | 39.55134 | 2.73888 | 30 ft | 21 kts | 149° |
| 2026-04-23 18:01 | 39.55011 | 2.73983 | 30 ft | 19 kts | 149° |
| 2026-04-23 18:02 | 39.54946 | 2.74034 | 30 ft | 17 kts | 148° |
| 2026-04-23 18:02 | 39.54833 | 2.74122 | 30 ft | 11 kts | 152° |
| 2026-04-23 18:02 | 39.54770 | 2.74083 | 30 ft | 11 kts | 236° |
| 2026-04-23 18:02 | 39.54733 | 2.74006 | 30 ft | 9 kts | 238° |
| 2026-04-23 18:03 | 39.54702 | 2.73939 | 30 ft | 8 kts | 238° |
| 2026-04-23 18:03 | 39.54674 | 2.73881 | 30 ft | 7 kts | 238° |
| 2026-04-23 18:03 | 39.54650 | 2.73829 | 30 ft | 9 kts | 238° |
| 2026-04-23 18:03 | 39.54612 | 2.73748 | 30 ft | 12 kts | 239° |
| 2026-04-23 18:04 | 39.54566 | 2.73653 | 30 ft | 14 kts | 238° |
| 2026-04-23 18:04 | 39.54516 | 2.73546 | 30 ft | 13 kts | 238° |
| 2026-04-23 18:04 | 39.54466 | 2.73440 | 30 ft | 14 kts | 238° |
| 2026-04-23 18:04 | 39.54419 | 2.73341 | 30 ft | 12 kts | 238° |
| 2026-04-23 18:05 | 39.54386 | 2.73248 | 30 ft | 11 kts | 274° |
| 2026-04-23 18:05 | 39.54436 | 2.73214 | 30 ft | 8 kts | 26° |
| 2026-04-23 18:05 | 39.54474 | 2.73238 | 30 ft | 5 kts | 352° |
| 2026-04-23 18:05 | 39.54496 | 2.73231 | 30 ft | 2 kts | 346° |
| 2026-04-23 18:06 | 39.54506 | 2.73228 | 30 ft | 0 kts | 346° |